createdAt,value
2022-08-14T00:03:35.038Z,100281.28
2022-08-14T00:08:43.775Z,100294.06
2022-08-14T00:13:46.513Z,100263.88
2022-08-14T00:19:06.402Z,100254.63
2022-08-14T00:24:10.783Z,100266.97
2022-08-14T00:29:27.125Z,100287.66
2022-08-14T00:34:36.754Z,100285.28
2022-08-14T00:39:36.316Z,100272.28
2022-08-14T00:44:35.361Z,100248.75
2022-08-14T00:49:43.119Z,100259.22
2022-08-14T00:54:43.467Z,100260.88
2022-08-14T00:59:45.030Z,100270.75
2022-08-14T01:04:53.452Z,100263.53
2022-08-14T01:09:58.777Z,100282.72
2022-08-14T01:14:58.907Z,100302.69
2022-08-14T01:20:27.754Z,100294.09
2022-08-14T01:25:28.212Z,100305.59
2022-08-14T01:30:26.600Z,100288.03
2022-08-14T01:36:05.627Z,100280.28
2022-08-14T01:40:47.951Z,100304.28
2022-08-14T01:46:06.027Z,100287.38
2022-08-14T01:51:19.286Z,100307.97
2022-08-14T01:56:36.898Z,100298.56
2022-08-14T02:01:38.147Z,100292.22
2022-08-14T02:06:43.150Z,100282.19
2022-08-14T02:11:45.344Z,100283.16
2022-08-14T02:16:54.258Z,100259.16
2022-08-14T02:21:55.578Z,100278.66
2022-08-14T02:28:23.366Z,100296.25
2022-08-14T02:32:30.318Z,100274.59
2022-08-14T02:37:45.671Z,100278.28
2022-08-14T02:42:54.950Z,100269.16
2022-08-14T02:47:57.407Z,100261.88
2022-08-14T02:53:03.324Z,100278.00
2022-08-14T02:58:06.028Z,100268.16
2022-08-14T03:03:08.008Z,100277.28
2022-08-14T03:08:16.015Z,100293.34
2022-08-14T03:13:21.162Z,100296.56
2022-08-14T03:18:31.847Z,100278.63
2022-08-14T03:23:37.701Z,100289.50
2022-08-14T03:28:40.597Z,100307.19
2022-08-14T03:33:41.203Z,100266.66
2022-08-14T03:39:12.415Z,100280.56
2022-08-14T03:45:27.468Z,100289.00
2022-08-14T03:49:29.285Z,100277.72
2022-08-14T03:54:34.582Z,100264.25
2022-08-14T03:59:33.080Z,100290.19
2022-08-14T04:04:33.594Z,100290.44
2022-08-14T04:09:33.898Z,100286.59
2022-08-14T04:14:33.098Z,100287.94
2022-08-14T04:19:36.720Z,100297.00
2022-08-14T04:24:40.654Z,100285.88
2022-08-14T04:29:40.778Z,100267.50
2022-08-14T04:34:42.180Z,100290.72
2022-08-14T04:40:03.119Z,100292.03
2022-08-14T04:45:01.878Z,100296.56
2022-08-14T04:50:03.555Z,100302.47
2022-08-14T04:55:02.846Z,100281.94
2022-08-14T05:00:03.314Z,100281.41
2022-08-14T05:05:01.369Z,100264.53
2022-08-14T05:09:59.641Z,100281.31
2022-08-14T05:15:00.747Z,100291.25
2022-08-14T05:21:54.943Z,100275.78
2022-08-14T05:25:21.458Z,100273.13
2022-08-14T05:30:22.810Z,100297.66
2022-08-14T05:35:23.582Z,100251.84
2022-08-14T05:40:24.088Z,100276.59
2022-08-14T05:45:22.519Z,100261.16
2022-08-14T05:50:22.694Z,100258.75
2022-08-14T05:55:23.348Z,100283.25
2022-08-14T06:00:29.836Z,100268.56
2022-08-14T06:05:32.560Z,100298.41
2022-08-14T06:10:38.044Z,100281.31
2022-08-14T06:15:35.978Z,100262.16
2022-08-14T06:20:35.618Z,100248.78
2022-08-14T06:25:34.565Z,100251.16
2022-08-14T06:30:46.367Z,100251.91
2022-08-14T06:35:47.913Z,100261.69
2022-08-14T06:40:46.293Z,100229.94
2022-08-14T06:45:53.677Z,100251.03
2022-08-14T06:50:58.306Z,100252.00
2022-08-14T06:56:00.643Z,100249.13
2022-08-14T07:01:26.829Z,100224.84
2022-08-14T07:06:46.367Z,100222.53
2022-08-14T07:11:45.682Z,100240.78
2022-08-14T07:16:46.701Z,100238.75
2022-08-14T07:21:46.571Z,100237.16
2022-08-14T07:26:48.692Z,100250.00
2022-08-14T07:31:46.423Z,100251.09
2022-08-14T07:36:58.233Z,100243.06
2022-08-14T07:42:02.606Z,100246.38
2022-08-14T07:47:05.332Z,100228.53
2022-08-14T07:52:04.263Z,100220.19
2022-08-14T07:57:12.185Z,100223.22
2022-08-14T08:02:18.779Z,100226.34
2022-08-14T08:07:19.376Z,100230.25
2022-08-14T08:12:20.753Z,100210.53
2022-08-14T08:17:20.784Z,100234.75
2022-08-14T08:22:23.875Z,100232.06
2022-08-14T08:27:25.247Z,100244.09
2022-08-14T08:32:29.894Z,100192.84
2022-08-14T08:37:32.658Z,100222.63
2022-08-14T08:42:44.944Z,100212.88
2022-08-14T08:47:46.549Z,100180.91
2022-08-14T08:52:51.302Z,100178.38
2022-08-14T08:57:56.840Z,100168.19
2022-08-14T09:03:05.553Z,100165.00
2022-08-14T09:08:31.432Z,100150.03
2022-08-14T09:13:33.212Z,100149.06
2022-08-14T09:18:33.952Z,100139.09
2022-08-14T09:23:34.762Z,100149.19
2022-08-14T09:28:34.555Z,100147.16
2022-08-14T09:34:04.359Z,100155.97
2022-08-14T09:39:23.080Z,100150.69
2022-08-14T09:44:54.528Z,100122.75
2022-08-14T09:49:53.771Z,100094.84
2022-08-14T09:54:51.455Z,100114.31
2022-08-14T10:00:30.564Z,100072.41
2022-08-14T10:05:34.044Z,100081.22
2022-08-14T10:10:41.750Z,100109.53
2022-08-14T10:15:46.794Z,100103.31
2022-08-14T10:20:58.480Z,100118.34
2022-08-14T10:26:23.064Z,100079.25
2022-08-14T10:31:44.808Z,100105.44
2022-08-14T10:37:02.651Z,100124.09
2022-08-14T10:42:16.502Z,100135.34
2022-08-14T10:47:40.015Z,100128.00
2022-08-14T10:52:57.085Z,100126.03
2022-08-14T10:57:59.875Z,100137.34
2022-08-14T11:03:02.675Z,100119.88
2022-08-14T11:08:09.209Z,100116.91
2022-08-14T11:13:17.301Z,100102.63
2022-08-14T11:18:20.507Z,100099.31
2022-08-14T11:23:38.282Z,100086.72
2022-08-14T11:28:49.831Z,100093.56
2022-08-14T11:33:59.546Z,100101.88
2022-08-14T11:39:03.037Z,100095.03
2022-08-14T11:44:17.524Z,100069.34
2022-08-14T11:49:35.505Z,100079.22
2022-08-14T11:54:36.434Z,100091.09
2022-08-14T11:59:35.479Z,100119.09
2022-08-14T12:04:54.181Z,100116.09
2022-08-14T12:09:57.120Z,100122.75
2022-08-14T12:15:00.274Z,100170.25
2022-08-14T12:20:03.136Z,100219.44
2022-08-14T12:25:08.491Z,100256.81
2022-08-14T12:30:14.403Z,100253.66
2022-08-14T12:35:22.829Z,100260.03
2022-08-14T12:40:25.177Z,100247.66
2022-08-14T12:45:33.484Z,100223.88
2022-08-14T12:50:42.273Z,100238.09
2022-08-14T12:56:21.431Z,100300.88
2022-08-14T13:01:56.792Z,100327.09
2022-08-14T13:06:55.874Z,100330.41
2022-08-14T13:11:58.976Z,100334.34
2022-08-14T13:17:20.856Z,100306.66
2022-08-14T13:22:32.110Z,100322.78
2022-08-14T13:27:39.088Z,100286.34
2022-08-14T13:32:48.257Z,100259.06
2022-08-14T13:37:53.564Z,100234.97
2022-08-14T13:42:57.273Z,100257.41
2022-08-14T13:47:55.614Z,100256.75
2022-08-14T13:53:02.561Z,100244.31
2022-08-14T13:58:05.367Z,100216.13
2022-08-14T14:03:08.642Z,100202.69
2022-08-14T14:08:18.606Z,100189.41
2022-08-14T14:13:26.659Z,100185.78
2022-08-14T14:18:34.507Z,100170.69
2022-08-14T14:23:40.710Z,100168.44
2022-08-14T14:28:39.210Z,100170.28
2022-08-14T14:33:51.239Z,100176.38
2022-08-14T14:39:04.186Z,100163.38
2022-08-14T14:44:03.180Z,100143.84
2022-08-14T14:49:07.952Z,100150.25
2022-08-14T14:54:09.402Z,100121.00
2022-08-14T14:59:14.407Z,100156.34
2022-08-14T15:04:20.965Z,100119.94
2022-08-14T15:09:20.400Z,100137.19
2022-08-14T15:14:56.167Z,100163.59
2022-08-14T15:19:42.475Z,100168.69
2022-08-14T15:24:59.254Z,100197.56
2022-08-14T15:29:59.473Z,100204.63
2022-08-14T15:34:58.300Z,100204.44
2022-08-14T15:39:57.362Z,100180.50
2022-08-14T15:45:01.270Z,100156.22
2022-08-14T15:50:04.538Z,100173.19
2022-08-14T15:55:04.588Z,100166.22
2022-08-14T16:00:40.575Z,100153.50
2022-08-14T16:05:50.724Z,100148.84
2022-08-14T16:10:51.056Z,100144.31
2022-08-14T16:15:59.745Z,100145.69
2022-08-14T16:21:21.353Z,100171.28
2022-08-14T16:26:29.107Z,100167.44
2022-08-14T16:31:35.747Z,100163.03
2022-08-14T16:36:38.349Z,100155.00
2022-08-14T16:42:39.507Z,100166.47
2022-08-14T16:47:25.463Z,100153.72
2022-08-14T16:52:54.801Z,100150.31
2022-08-14T16:57:58.834Z,100160.56
2022-08-14T17:03:13.457Z,100209.16
2022-08-14T17:08:32.400Z,100180.34
2022-08-14T17:13:59.468Z,100175.09
2022-08-14T17:19:04.798Z,100164.44
2022-08-14T17:24:56.838Z,100137.16
2022-08-14T17:29:54.446Z,100138.94
2022-08-14T17:35:02.371Z,100154.63
2022-08-14T17:40:19.847Z,100161.47
2022-08-14T17:45:47.186Z,100166.22
2022-08-14T17:51:01.103Z,100155.75
2022-08-14T17:56:03.956Z,100136.81
2022-08-14T18:01:08.881Z,100132.03
2022-08-14T18:06:39.044Z,100137.53
2022-08-14T18:11:46.368Z,100124.94
2022-08-14T18:16:47.988Z,100126.53
2022-08-14T18:21:57.004Z,100131.31
2022-08-14T18:27:10.660Z,100151.69
2022-08-14T18:32:31.954Z,100175.28
2022-08-14T18:37:37.773Z,100175.81
2022-08-14T18:42:35.747Z,100178.47
2022-08-14T18:48:06.493Z,100177.19
2022-08-14T18:53:09.037Z,100180.09
2022-08-14T18:58:25.973Z,100202.66
2022-08-14T19:03:50.256Z,100186.47
2022-08-14T19:09:02.987Z,100165.72
2022-08-14T19:14:05.617Z,100173.81
2022-08-14T19:19:35.103Z,100185.91
2022-08-14T19:24:50.135Z,100200.88
2022-08-14T19:29:51.254Z,100176.22
2022-08-14T19:34:53.057Z,100208.03
2022-08-14T19:39:57.123Z,100186.88
2022-08-14T19:44:56.413Z,100171.41
2022-08-14T19:50:30.231Z,100187.22
2022-08-14T19:55:34.671Z,100175.44
2022-08-14T20:00:52.020Z,100180.84
2022-08-14T20:06:05.391Z,100208.75
2022-08-14T20:11:42.935Z,100185.81
2022-08-14T20:17:03.258Z,100218.94
2022-08-14T20:22:36.407Z,100192.94
2022-08-14T20:27:59.576Z,100210.78
2022-08-14T20:33:03.353Z,100189.31
2022-08-14T20:38:29.680Z,100220.56
2022-08-14T20:43:56.347Z,100197.31
2022-08-14T20:49:00.818Z,100204.16
2022-08-14T20:54:02.782Z,100161.66
2022-08-14T20:59:18.234Z,100165.56
2022-08-14T21:04:56.958Z,100164.63
2022-08-14T21:11:04.954Z,100192.78
2022-08-14T21:16:30.826Z,100162.03
2022-08-14T21:21:40.584Z,100165.25
2022-08-14T21:27:04.404Z,100132.25
2022-08-14T21:32:50.539Z,100139.94
2022-08-14T21:38:18.201Z,100138.03
2022-08-14T21:43:22.752Z,100161.94
2022-08-14T21:48:21.694Z,100145.13
2022-08-14T21:53:25.765Z,100146.22
2022-08-14T21:58:54.547Z,100146.94
2022-08-14T22:03:55.186Z,100144.44
2022-08-14T22:08:55.827Z,100177.13
2022-08-14T22:14:02.110Z,100155.81
2022-08-14T22:19:21.506Z,100170.94
2022-08-14T22:24:38.372Z,100155.91
2022-08-14T22:29:54.876Z,100151.13
2022-08-14T22:34:58.054Z,100199.84
2022-08-14T22:40:43.510Z,100197.06
2022-08-14T22:45:16.901Z,100181.31
2022-08-14T22:50:30.506Z,100190.78
2022-08-14T22:55:31.299Z,100213.81
2022-08-14T23:00:35.724Z,100207.84
2022-08-14T23:05:40.293Z,100237.59
2022-08-14T23:10:55.215Z,100215.59
2022-08-14T23:15:56.100Z,100222.50
2022-08-14T23:20:55.704Z,100227.31
2022-08-14T23:25:59.428Z,100222.75
2022-08-14T23:31:05.560Z,100205.03
2022-08-14T23:36:28.238Z,100211.75
2022-08-14T23:41:24.648Z,100188.53
2022-08-14T23:46:34.639Z,100218.75
2022-08-14T23:51:38.685Z,100212.97
2022-08-14T23:56:37.459Z,100213.25
